sensor_id;sensor_type;location;lat;lon;timestamp;pressure;altitude;pressure_sealevel;temperature;humidity
5380;BME280;2713;42.680;23.310;2022-11-12T00:01:34;96428.19;;;12.29;73.31
5380;BME280;2713;42.680;23.310;2022-11-12T00:04:20;96427.81;;;12.24;73.66
5380;BME280;2713;42.680;23.310;2022-11-12T00:07:05;96415.72;;;12.15;74.83
5380;BME280;2713;42.680;23.310;2022-11-12T00:09:51;96407.09;;;12.23;74.04
5380;BME280;2713;42.680;23.310;2022-11-12T00:12:36;96411.63;;;12.12;73.92
5380;BME280;2713;42.680;23.310;2022-11-12T00:15:23;96411.88;;;12.27;73.52
5380;BME280;2713;42.680;23.310;2022-11-12T00:18:09;96398.69;;;12.29;73.62
5380;BME280;2713;42.680;23.310;2022-11-12T00:20:54;96408.13;;;12.30;73.69
5380;BME280;2713;42.680;23.310;2022-11-12T00:23:39;96407.41;;;12.11;74.94
5380;BME280;2713;42.680;23.310;2022-11-12T00:26:25;96412.22;;;12.32;74.12
5380;BME280;2713;42.680;23.310;2022-11-12T00:29:10;96409.94;;;12.29;73.57
5380;BME280;2713;42.680;23.310;2022-11-12T00:31:57;96413.97;;;12.24;73.58
5380;BME280;2713;42.680;23.310;2022-11-12T00:34:42;96414.44;;;12.19;72.99
5380;BME280;2713;42.680;23.310;2022-11-12T00:37:28;96421.97;;;12.22;73.18
5380;BME280;2713;42.680;23.310;2022-11-12T00:40:14;96422.59;;;12.24;73.43
5380;BME280;2713;42.680;23.310;2022-11-12T00:42:59;96419.34;;;12.22;73.58
5380;BME280;2713;42.680;23.310;2022-11-12T00:45:44;96421.31;;;12.28;74.07
5380;BME280;2713;42.680;23.310;2022-11-12T00:48:31;96418.47;;;12.13;74.42
5380;BME280;2713;42.680;23.310;2022-11-12T00:51:16;96421.09;;;12.13;73.80
5380;BME280;2713;42.680;23.310;2022-11-12T00:54:01;96414.78;;;12.24;73.27
5380;BME280;2713;42.680;23.310;2022-11-12T00:56:47;96410.91;;;12.28;73.52
5380;BME280;2713;42.680;23.310;2022-11-12T00:59:33;96405.19;;;12.25;73.06
5380;BME280;2713;42.680;23.310;2022-11-12T01:02:18;96389.78;;;12.05;73.18
5380;BME280;2713;42.680;23.310;2022-11-12T01:05:07;96373.97;;;12.07;73.86
5380;BME280;2713;42.680;23.310;2022-11-12T01:07:52;96390.56;;;11.98;74.06
5380;BME280;2713;42.680;23.310;2022-11-12T01:10:37;96395.97;;;12.12;73.39
5380;BME280;2713;42.680;23.310;2022-11-12T01:13:23;96395.59;;;11.99;73.96
5380;BME280;2713;42.680;23.310;2022-11-12T01:16:11;96392.91;;;12.17;73.66
5380;BME280;2713;42.680;23.310;2022-11-12T01:18:58;96391.59;;;12.13;73.95
5380;BME280;2713;42.680;23.310;2022-11-12T01:21:45;96387.75;;;11.91;74.72
5380;BME280;2713;42.680;23.310;2022-11-12T01:24:30;96385.72;;;12.11;74.67
5380;BME280;2713;42.680;23.310;2022-11-12T01:27:15;96385.06;;;12.09;74.17
5380;BME280;2713;42.680;23.310;2022-11-12T01:30:01;96382.50;;;12.17;74.29
5380;BME280;2713;42.680;23.310;2022-11-12T01:32:46;96387.19;;;12.13;74.01
5380;BME280;2713;42.680;23.310;2022-11-12T01:35:31;96378.06;;;12.09;74.06
5380;BME280;2713;42.680;23.310;2022-11-12T01:38:18;96380.72;;;12.17;73.69
5380;BME280;2713;42.680;23.310;2022-11-12T01:41:06;96370.13;;;12.19;73.67
5380;BME280;2713;42.680;23.310;2022-11-12T01:44:07;96377.28;;;12.17;73.78
5380;BME280;2713;42.680;23.310;2022-11-12T01:46:57;96370.72;;;12.05;74.00
5380;BME280;2713;42.680;23.310;2022-11-12T01:49:49;96377.41;;;12.07;73.91
5380;BME280;2713;42.680;23.310;2022-11-12T01:52:38;96374.34;;;12.12;73.20
5380;BME280;2713;42.680;23.310;2022-11-12T01:55:28;96364.88;;;12.11;73.18
5380;BME280;2713;42.680;23.310;2022-11-12T01:58:17;96372.63;;;12.29;72.99
5380;BME280;2713;42.680;23.310;2022-11-12T02:01:03;96372.94;;;12.34;72.65
5380;BME280;2713;42.680;23.310;2022-11-12T02:03:48;96366.41;;;12.30;73.58
5380;BME280;2713;42.680;23.310;2022-11-12T02:06:35;96361.31;;;12.12;74.25
5380;BME280;2713;42.680;23.310;2022-11-12T02:09:21;96372.44;;;12.30;72.71
5380;BME280;2713;42.680;23.310;2022-11-12T02:12:08;96373.22;;;12.23;71.97
5380;BME280;2713;42.680;23.310;2022-11-12T02:15:13;96366.72;;;12.27;72.65
5380;BME280;2713;42.680;23.310;2022-11-12T02:17:58;96381.91;;;12.31;73.22
5380;BME280;2713;42.680;23.310;2022-11-12T02:20:43;96373.59;;;12.28;73.27
5380;BME280;2713;42.680;23.310;2022-11-12T02:23:30;96384.47;;;12.23;71.92
5380;BME280;2713;42.680;23.310;2022-11-12T02:26:16;96381.66;;;12.16;70.64
5380;BME280;2713;42.680;23.310;2022-11-12T02:29:02;96386.97;;;11.99;70.26
5380;BME280;2713;42.680;23.310;2022-11-12T02:34:27;96378.22;;;12.08;68.82
5380;BME280;2713;42.680;23.310;2022-11-12T02:37:13;96380.53;;;12.11;69.17
5380;BME280;2713;42.680;23.310;2022-11-12T02:39:59;96376.16;;;12.19;68.82
5380;BME280;2713;42.680;23.310;2022-11-12T02:42:45;96375.25;;;12.03;68.99
5380;BME280;2713;42.680;23.310;2022-11-12T02:45:30;96371.69;;;12.04;68.41
5380;BME280;2713;42.680;23.310;2022-11-12T02:48:16;96369.47;;;11.83;69.40
5380;BME280;2713;42.680;23.310;2022-11-12T02:51:01;96365.72;;;11.86;69.27
5380;BME280;2713;42.680;23.310;2022-11-12T02:53:46;96386.06;;;11.82;69.54
5380;BME280;2713;42.680;23.310;2022-11-12T02:56:34;96372.91;;;11.92;68.93
5380;BME280;2713;42.680;23.310;2022-11-12T02:59:19;96371.50;;;11.97;69.16
5380;BME280;2713;42.680;23.310;2022-11-12T03:02:04;96374.56;;;11.93;69.28
5380;BME280;2713;42.680;23.310;2022-11-12T03:04:50;96366.78;;;12.01;68.78
5380;BME280;2713;42.680;23.310;2022-11-12T03:07:35;96370.69;;;11.97;69.67
5380;BME280;2713;42.680;23.310;2022-11-12T03:10:21;96370.38;;;12.00;69.80
5380;BME280;2713;42.680;23.310;2022-11-12T03:13:08;96367.63;;;12.01;70.24
5380;BME280;2713;42.680;23.310;2022-11-12T03:15:58;96378.38;;;12.06;70.65
5380;BME280;2713;42.680;23.310;2022-11-12T03:18:44;96374.69;;;12.17;70.04
5380;BME280;2713;42.680;23.310;2022-11-12T03:21:29;96372.69;;;12.11;69.80
5380;BME280;2713;42.680;23.310;2022-11-12T03:24:15;96373.66;;;12.10;69.75
5380;BME280;2713;42.680;23.310;2022-11-12T03:27:00;96380.28;;;11.96;70.02
5380;BME280;2713;42.680;23.310;2022-11-12T03:29:47;96383.50;;;11.90;69.96
5380;BME280;2713;42.680;23.310;2022-11-12T03:32:32;96383.06;;;12.03;69.41
5380;BME280;2713;42.680;23.310;2022-11-12T03:35:17;96382.69;;;11.64;70.31
5380;BME280;2713;42.680;23.310;2022-11-12T03:38:03;96373.16;;;11.55;70.70
5380;BME280;2713;42.680;23.310;2022-11-12T03:40:48;96382.34;;;11.41;71.17
5380;BME280;2713;42.680;23.310;2022-11-12T03:43:34;96382.94;;;11.53;71.18
5380;BME280;2713;42.680;23.310;2022-11-12T03:46:21;96376.19;;;11.68;70.64
5380;BME280;2713;42.680;23.310;2022-11-12T03:49:07;96373.72;;;11.84;70.31
5380;BME280;2713;42.680;23.310;2022-11-12T03:51:52;96370.16;;;11.93;69.67
5380;BME280;2713;42.680;23.310;2022-11-12T03:54:37;96374.09;;;11.97;69.48
5380;BME280;2713;42.680;23.310;2022-11-12T03:57:23;96377.84;;;11.95;69.58
5380;BME280;2713;42.680;23.310;2022-11-12T04:00:09;96374.56;;;11.93;69.64
5380;BME280;2713;42.680;23.310;2022-11-12T04:02:57;96378.31;;;11.90;69.78
5380;BME280;2713;42.680;23.310;2022-11-12T04:05:42;96365.06;;;11.84;70.09
5380;BME280;2713;42.680;23.310;2022-11-12T04:08:45;96349.44;;;11.84;69.35
5380;BME280;2713;42.680;23.310;2022-11-12T04:11:30;96380.19;;;11.80;68.01
5380;BME280;2713;42.680;23.310;2022-11-12T04:14:16;96374.88;;;11.90;68.53
5380;BME280;2713;42.680;23.310;2022-11-12T04:17:01;96359.81;;;11.76;68.67
5380;BME280;2713;42.680;23.310;2022-11-12T04:20:07;96364.81;;;11.43;68.55
5380;BME280;2713;42.680;23.310;2022-11-12T04:23:11;96357.41;;;11.13;68.98
5380;BME280;2713;42.680;23.310;2022-11-12T04:25:56;96370.28;;;11.14;69.06
5380;BME280;2713;42.680;23.310;2022-11-12T04:28:59;96354.41;;;11.26;69.20
5380;BME280;2713;42.680;23.310;2022-11-12T04:32:02;96358.66;;;11.52;68.21
5380;BME280;2713;42.680;23.310;2022-11-12T04:34:47;96366.22;;;11.63;68.14
5380;BME280;2713;42.680;23.310;2022-11-12T04:37:35;96367.84;;;11.64;67.27
5380;BME280;2713;42.680;23.310;2022-11-12T04:40:28;96362.00;;;11.62;67.57
5380;BME280;2713;42.680;23.310;2022-11-12T04:43:31;96365.56;;;11.61;67.27
5380;BME280;2713;42.680;23.310;2022-11-12T04:46:38;96364.53;;;11.54;67.58
5380;BME280;2713;42.680;23.310;2022-11-12T04:49:23;96365.22;;;11.56;67.29
5380;BME280;2713;42.680;23.310;2022-11-12T04:52:09;96373.47;;;11.52;68.07
5380;BME280;2713;42.680;23.310;2022-11-12T04:54:56;96380.97;;;11.55;68.44
5380;BME280;2713;42.680;23.310;2022-11-12T04:57:42;96368.16;;;11.36;67.31
5380;BME280;2713;42.680;23.310;2022-11-12T05:00:27;96378.72;;;11.34;66.98
5380;BME280;2713;42.680;23.310;2022-11-12T05:03:13;96378.34;;;11.47;67.09
5380;BME280;2713;42.680;23.310;2022-11-12T05:06:02;96382.41;;;11.49;66.55
5380;BME280;2713;42.680;23.310;2022-11-12T05:09:08;96380.56;;;11.42;66.33
5380;BME280;2713;42.680;23.310;2022-11-12T05:11:55;96394.22;;;11.18;66.52
5380;BME280;2713;42.680;23.310;2022-11-12T05:14:41;96398.31;;;10.85;66.94
5380;BME280;2713;42.680;23.310;2022-11-12T05:17:26;96400.53;;;10.98;66.83
5380;BME280;2713;42.680;23.310;2022-11-12T05:20:13;96397.69;;;10.74;66.76
5380;BME280;2713;42.680;23.310;2022-11-12T05:22:58;96405.09;;;10.68;67.62
5380;BME280;2713;42.680;23.310;2022-11-12T05:25:43;96402.38;;;10.70;67.51
5380;BME280;2713;42.680;23.310;2022-11-12T05:28:30;96400.59;;;10.71;67.78
5380;BME280;2713;42.680;23.310;2022-11-12T05:31:15;96404.16;;;10.69;67.49
5380;BME280;2713;42.680;23.310;2022-11-12T05:34:01;96409.16;;;10.81;67.79
5380;BME280;2713;42.680;23.310;2022-11-12T05:36:46;96408.69;;;11.03;67.08
5380;BME280;2713;42.680;23.310;2022-11-12T05:39:32;96415.16;;;11.16;66.11
5380;BME280;2713;42.680;23.310;2022-11-12T05:42:17;96413.16;;;11.10;66.61
5380;BME280;2713;42.680;23.310;2022-11-12T05:45:05;96400.31;;;10.91;67.02
5380;BME280;2713;42.680;23.310;2022-11-12T05:47:51;96410.19;;;10.70;67.60
5380;BME280;2713;42.680;23.310;2022-11-12T05:50:36;96408.41;;;10.88;66.89
5380;BME280;2713;42.680;23.310;2022-11-12T05:53:22;96399.47;;;10.73;67.72
5380;BME280;2713;42.680;23.310;2022-11-12T05:56:09;96422.41;;;11.05;66.91
5380;BME280;2713;42.680;23.310;2022-11-12T05:58:55;96419.50;;;11.26;66.18
5380;BME280;2713;42.680;23.310;2022-11-12T06:01:42;96424.91;;;10.97;66.83
5380;BME280;2713;42.680;23.310;2022-11-12T06:04:27;96423.78;;;11.17;66.76
5380;BME280;2713;42.680;23.310;2022-11-12T06:07:13;96424.56;;;11.09;66.49
5380;BME280;2713;42.680;23.310;2022-11-12T06:09:58;96427.00;;;11.11;66.09
5380;BME280;2713;42.680;23.310;2022-11-12T06:12:43;96430.94;;;11.15;66.67
5380;BME280;2713;42.680;23.310;2022-11-12T06:15:29;96434.94;;;11.27;65.74
5380;BME280;2713;42.680;23.310;2022-11-12T06:18:16;96438.13;;;10.68;66.96
5380;BME280;2713;42.680;23.310;2022-11-12T06:21:03;96430.72;;;10.46;67.42
5380;BME280;2713;42.680;23.310;2022-11-12T06:24:05;96430.91;;;10.80;67.10
5380;BME280;2713;42.680;23.310;2022-11-12T06:26:50;96436.66;;;10.56;67.50
5380;BME280;2713;42.680;23.310;2022-11-12T06:29:36;96434.69;;;10.67;67.29
5380;BME280;2713;42.680;23.310;2022-11-12T06:32:22;96431.84;;;10.88;66.59
5380;BME280;2713;42.680;23.310;2022-11-12T06:35:09;96421.41;;;10.71;66.76
5380;BME280;2713;42.680;23.310;2022-11-12T06:37:54;96423.38;;;10.59;67.03
5380;BME280;2713;42.680;23.310;2022-11-12T06:40:40;96429.66;;;10.84;66.83
5380;BME280;2713;42.680;23.310;2022-11-12T06:43:28;96424.09;;;11.14;72.70
5380;BME280;2713;42.680;23.310;2022-11-12T06:46:15;96451.53;;;11.08;65.53
5380;BME280;2713;42.680;23.310;2022-11-12T06:49:00;96445.56;;;11.34;64.67
5380;BME280;2713;42.680;23.310;2022-11-12T06:51:48;96453.44;;;11.59;64.44
5380;BME280;2713;42.680;23.310;2022-11-12T06:54:34;96450.03;;;11.41;64.02
5380;BME280;2713;42.680;23.310;2022-11-12T06:57:20;96447.97;;;11.09;64.94
5380;BME280;2713;42.680;23.310;2022-11-12T07:00:06;96452.28;;;11.18;65.46
5380;BME280;2713;42.680;23.310;2022-11-12T07:02:52;96446.47;;;11.42;64.65
5380;BME280;2713;42.680;23.310;2022-11-12T07:05:38;96444.53;;;11.44;64.08
5380;BME280;2713;42.680;23.310;2022-11-12T07:08:24;96439.94;;;11.38;64.49
5380;BME280;2713;42.680;23.310;2022-11-12T07:11:10;96438.22;;;11.29;64.65
5380;BME280;2713;42.680;23.310;2022-11-12T07:13:55;96443.75;;;11.26;64.97
5380;BME280;2713;42.680;23.310;2022-11-12T07:16:41;96426.59;;;13.02;91.11
5380;BME280;2713;42.680;23.310;2022-11-12T07:19:27;96432.81;;;12.51;65.92
5380;BME280;2713;42.680;23.310;2022-11-12T07:22:12;96427.09;;;12.48;63.61
5380;BME280;2713;42.680;23.310;2022-11-12T07:24:59;96424.00;;;12.44;65.02
5380;BME280;2713;42.680;23.310;2022-11-12T07:27:44;96428.59;;;12.16;62.95
5380;BME280;2713;42.680;23.310;2022-11-12T07:30:29;96432.69;;;12.19;62.89
5380;BME280;2713;42.680;23.310;2022-11-12T07:33:15;96434.47;;;11.85;62.92
5380;BME280;2713;42.680;23.310;2022-11-12T07:36:02;96440.31;;;11.87;63.62
5380;BME280;2713;42.680;23.310;2022-11-12T07:38:50;96434.16;;;11.70;63.28
5380;BME280;2713;42.680;23.310;2022-11-12T07:41:37;96435.56;;;11.64;63.24
5380;BME280;2713;42.680;23.310;2022-11-12T07:44:22;96428.53;;;11.75;63.29
5380;BME280;2713;42.680;23.310;2022-11-12T07:47:08;96435.94;;;11.69;61.82
5380;BME280;2713;42.680;23.310;2022-11-12T07:49:53;96436.88;;;11.60;62.90
5380;BME280;2713;42.680;23.310;2022-11-12T07:52:38;96435.88;;;11.79;61.85
5380;BME280;2713;42.680;23.310;2022-11-12T07:55:24;96433.16;;;11.89;61.15
5380;BME280;2713;42.680;23.310;2022-11-12T07:58:10;96431.16;;;11.83;61.75
5380;BME280;2713;42.680;23.310;2022-11-12T08:00:56;96432.13;;;12.07;60.98
5380;BME280;2713;42.680;23.310;2022-11-12T08:03:41;96433.50;;;12.19;62.92
5380;BME280;2713;42.680;23.310;2022-11-12T08:06:27;96446.56;;;11.94;60.30
5380;BME280;2713;42.680;23.310;2022-11-12T08:09:12;96452.59;;;11.94;60.07
5380;BME280;2713;42.680;23.310;2022-11-12T08:11:58;96454.72;;;11.73;60.59
5380;BME280;2713;42.680;23.310;2022-11-12T08:14:45;96444.72;;;11.68;61.40
5380;BME280;2713;42.680;23.310;2022-11-12T08:17:30;96447.81;;;11.90;61.25
5380;BME280;2713;42.680;23.310;2022-11-12T08:20:15;96446.63;;;12.02;60.69
5380;BME280;2713;42.680;23.310;2022-11-12T08:23:01;96447.59;;;12.09;60.69
5380;BME280;2713;42.680;23.310;2022-11-12T08:25:46;96449.91;;;11.86;60.67
5380;BME280;2713;42.680;23.310;2022-11-12T08:28:34;96450.94;;;11.50;61.05
5380;BME280;2713;42.680;23.310;2022-11-12T08:31:21;96447.94;;;11.80;60.99
5380;BME280;2713;42.680;23.310;2022-11-12T08:34:06;96459.50;;;11.42;61.80
5380;BME280;2713;42.680;23.310;2022-11-12T08:36:57;96466.19;;;11.27;62.06
5380;BME280;2713;42.680;23.310;2022-11-12T08:39:43;96446.72;;;10.96;62.79
5380;BME280;2713;42.680;23.310;2022-11-12T08:42:28;96451.03;;;11.23;62.20
5380;BME280;2713;42.680;23.310;2022-11-12T08:45:14;96453.41;;;11.16;63.00
5380;BME280;2713;42.680;23.310;2022-11-12T08:48:03;96460.41;;;11.15;62.73
5380;BME280;2713;42.680;23.310;2022-11-12T08:50:49;96458.66;;;11.24;63.02
5380;BME280;2713;42.680;23.310;2022-11-12T08:53:34;96457.50;;;11.18;62.96
5380;BME280;2713;42.680;23.310;2022-11-12T08:56:20;96459.41;;;11.52;61.87
5380;BME280;2713;42.680;23.310;2022-11-12T08:59:06;96459.19;;;11.45;61.48
5380;BME280;2713;42.680;23.310;2022-11-12T09:01:51;96458.88;;;11.48;61.95
5380;BME280;2713;42.680;23.310;2022-11-12T09:04:38;96434.72;;;11.38;61.29
5380;BME280;2713;42.680;23.310;2022-11-12T09:07:23;96453.09;;;11.37;60.94
5380;BME280;2713;42.680;23.310;2022-11-12T09:10:09;96452.81;;;11.40;60.69
5380;BME280;2713;42.680;23.310;2022-11-12T09:12:54;96452.84;;;11.65;60.69
5380;BME280;2713;42.680;23.310;2022-11-12T09:15:39;96437.66;;;12.04;66.39
5380;BME280;2713;42.680;23.310;2022-11-12T09:18:25;96443.56;;;12.48;62.59
5380;BME280;2713;42.680;23.310;2022-11-12T09:21:12;96434.56;;;12.85;68.04
5380;BME280;2713;42.680;23.310;2022-11-12T09:23:57;96444.03;;;12.36;59.53
5380;BME280;2713;42.680;23.310;2022-11-12T09:26:43;96438.94;;;12.34;58.96
5380;BME280;2713;42.680;23.310;2022-11-12T09:29:28;96453.78;;;11.82;59.18
5380;BME280;2713;42.680;23.310;2022-11-12T09:32:14;96451.91;;;12.18;61.07
5380;BME280;2713;42.680;23.310;2022-11-12T09:34:59;96425.59;;;12.37;76.45
5380;BME280;2713;42.680;23.310;2022-11-12T09:37:46;96451.28;;;12.24;60.30
5380;BME280;2713;42.680;23.310;2022-11-12T09:40:38;96450.44;;;11.90;60.23
5380;BME280;2713;42.680;23.310;2022-11-12T09:43:28;96455.72;;;11.98;61.55
5380;BME280;2713;42.680;23.310;2022-11-12T09:46:24;96455.75;;;11.45;59.04
5380;BME280;2713;42.680;23.310;2022-11-12T09:49:15;96454.50;;;11.13;59.34
5380;BME280;2713;42.680;23.310;2022-11-12T09:52:05;96457.28;;;11.12;59.51
5380;BME280;2713;42.680;23.310;2022-11-12T09:55:04;96463.53;;;11.37;59.17
5380;BME280;2713;42.680;23.310;2022-11-12T09:57:52;96459.66;;;11.23;59.17
5380;BME280;2713;42.680;23.310;2022-11-12T10:00:39;96456.44;;;11.29;59.12
5380;BME280;2713;42.680;23.310;2022-11-12T10:03:33;96450.41;;;11.46;59.12
5380;BME280;2713;42.680;23.310;2022-11-12T10:06:21;96451.44;;;11.53;58.68
5380;BME280;2713;42.680;23.310;2022-11-12T10:09:12;96453.69;;;11.48;58.82
5380;BME280;2713;42.680;23.310;2022-11-12T10:12:04;96455.09;;;11.43;59.59
5380;BME280;2713;42.680;23.310;2022-11-12T10:15:30;96451.91;;;11.31;59.95
5380;BME280;2713;42.680;23.310;2022-11-12T10:18:49;96448.97;;;11.52;65.78
5380;BME280;2713;42.680;23.310;2022-11-12T10:21:43;96454.44;;;11.23;60.07
5380;BME280;2713;42.680;23.310;2022-11-12T10:24:34;96449.59;;;11.10;60.17
5380;BME280;2713;42.680;23.310;2022-11-12T10:27:22;96449.81;;;11.17;60.57
5380;BME280;2713;42.680;23.310;2022-11-12T10:30:14;96451.25;;;11.47;59.49
5380;BME280;2713;42.680;23.310;2022-11-12T10:32:59;96451.25;;;11.47;59.71
5380;BME280;2713;42.680;23.310;2022-11-12T10:35:44;96451.25;;;11.29;60.28
5380;BME280;2713;42.680;23.310;2022-11-12T10:38:31;96455.75;;;11.45;60.53
5380;BME280;2713;42.680;23.310;2022-11-12T10:41:21;96447.97;;;11.27;61.68
5380;BME280;2713;42.680;23.310;2022-11-12T10:44:12;96449.25;;;11.05;62.65
5380;BME280;2713;42.680;23.310;2022-11-12T10:47:24;96451.31;;;11.02;63.06
5380;BME280;2713;42.680;23.310;2022-11-12T10:50:15;96445.38;;;10.92;63.46
5380;BME280;2713;42.680;23.310;2022-11-12T10:53:04;96441.13;;;11.08;68.30
5380;BME280;2713;42.680;23.310;2022-11-12T10:55:57;96437.75;;;10.81;64.30
5380;BME280;2713;42.680;23.310;2022-11-12T10:58:43;96439.13;;;10.85;64.10
5380;BME280;2713;42.680;23.310;2022-11-12T11:01:31;96422.06;;;10.73;64.59
5380;BME280;2713;42.680;23.310;2022-11-12T11:04:26;96445.88;;;11.13;64.46
5380;BME280;2713;42.680;23.310;2022-11-12T11:07:20;96449.00;;;11.34;64.30
5380;BME280;2713;42.680;23.310;2022-11-12T11:10:22;96445.53;;;11.26;63.73
5380;BME280;2713;42.680;23.310;2022-11-12T11:13:15;96440.63;;;11.40;64.28
5380;BME280;2713;42.680;23.310;2022-11-12T11:16:03;96440.91;;;11.02;64.18
5380;BME280;2713;42.680;23.310;2022-11-12T11:18:53;96443.88;;;11.07;65.33
5380;BME280;2713;42.680;23.310;2022-11-12T11:22:01;96439.50;;;11.07;64.60
5380;BME280;2713;42.680;23.310;2022-11-12T11:28:02;96434.44;;;10.88;65.17
5380;BME280;2713;42.680;23.310;2022-11-12T11:30:55;96430.41;;;10.94;65.52
5380;BME280;2713;42.680;23.310;2022-11-12T11:33:53;96438.59;;;11.16;64.60
5380;BME280;2713;42.680;23.310;2022-11-12T11:36:48;96439.72;;;11.14;64.69
5380;BME280;2713;42.680;23.310;2022-11-12T11:39:42;96438.06;;;11.31;64.42
5380;BME280;2713;42.680;23.310;2022-11-12T11:42:47;96438.16;;;11.39;64.09
5380;BME280;2713;42.680;23.310;2022-11-12T11:45:52;96434.53;;;11.75;63.31
5380;BME280;2713;42.680;23.310;2022-11-12T11:48:56;96433.47;;;11.42;64.15
5380;BME280;2713;42.680;23.310;2022-11-12T11:51:51;96428.06;;;11.61;63.62
5380;BME280;2713;42.680;23.310;2022-11-12T11:54:49;96440.66;;;11.48;63.64
5380;BME280;2713;42.680;23.310;2022-11-12T11:57:46;96436.78;;;11.52;63.14
5380;BME280;2713;42.680;23.310;2022-11-12T12:00:45;96428.88;;;11.80;62.65
5380;BME280;2713;42.680;23.310;2022-11-12T12:03:38;96435.44;;;11.92;62.19
5380;BME280;2713;42.680;23.310;2022-11-12T12:06:29;96433.13;;;11.81;62.71
5380;BME280;2713;42.680;23.310;2022-11-12T12:09:25;96439.50;;;11.68;63.29
5380;BME280;2713;42.680;23.310;2022-11-12T12:12:25;96436.03;;;11.78;62.59
5380;BME280;2713;42.680;23.310;2022-11-12T12:15:35;96431.41;;;11.72;62.99
5380;BME280;2713;42.680;23.310;2022-11-12T12:18:30;96424.94;;;11.76;62.51
5380;BME280;2713;42.680;23.310;2022-11-12T12:21:20;96416.47;;;11.74;62.66
5380;BME280;2713;42.680;23.310;2022-11-12T12:24:15;96414.84;;;11.98;62.33
5380;BME280;2713;42.680;23.310;2022-11-12T12:27:07;96414.78;;;12.24;62.49
5380;BME280;2713;42.680;23.310;2022-11-12T12:29:57;96419.50;;;12.20;63.50
5380;BME280;2713;42.680;23.310;2022-11-12T12:32:49;96416.19;;;12.10;63.32
5380;BME280;2713;42.680;23.310;2022-11-12T12:35:43;96421.84;;;11.98;64.20
5380;BME280;2713;42.680;23.310;2022-11-12T12:38:37;96420.13;;;12.14;63.21
5380;BME280;2713;42.680;23.310;2022-11-12T12:41:31;96424.88;;;12.19;63.15
5380;BME280;2713;42.680;23.310;2022-11-12T12:44:18;96422.28;;;12.19;63.26
5380;BME280;2713;42.680;23.310;2022-11-12T12:47:08;96420.44;;;12.11;63.14
5380;BME280;2713;42.680;23.310;2022-11-12T12:49:57;96419.03;;;12.25;62.22
5380;BME280;2713;42.680;23.310;2022-11-12T12:53:03;96430.13;;;12.27;62.47
5380;BME280;2713;42.680;23.310;2022-11-12T12:55:50;96418.78;;;12.10;62.71
5380;BME280;2713;42.680;23.310;2022-11-12T12:58:43;96418.78;;;12.36;64.22
5380;BME280;2713;42.680;23.310;2022-11-12T13:01:30;96421.44;;;12.18;64.01
5380;BME280;2713;42.680;23.310;2022-11-12T13:04:17;96416.47;;;11.74;64.26
5380;BME280;2713;42.680;23.310;2022-11-12T13:07:38;96422.81;;;11.53;65.00
5380;BME280;2713;42.680;23.310;2022-11-12T13:10:49;96428.34;;;11.15;66.61
5380;BME280;2713;42.680;23.310;2022-11-12T13:13:36;96422.00;;;11.00;67.36
5380;BME280;2713;42.680;23.310;2022-11-12T13:16:56;96432.56;;;10.81;68.57
5380;BME280;2713;42.680;23.310;2022-11-12T13:19:47;96426.50;;;10.62;69.94
5380;BME280;2713;42.680;23.310;2022-11-12T13:22:51;96435.81;;;10.65;70.55
5380;BME280;2713;42.680;23.310;2022-11-12T13:25:37;96419.13;;;10.85;70.73
5380;BME280;2713;42.680;23.310;2022-11-12T13:28:23;96424.69;;;11.08;70.56
5380;BME280;2713;42.680;23.310;2022-11-12T13:31:25;96427.06;;;11.01;70.76
5380;BME280;2713;42.680;23.310;2022-11-12T13:34:18;96424.84;;;10.89;71.99
5380;BME280;2713;42.680;23.310;2022-11-12T13:37:05;96439.19;;;10.75;72.78
5380;BME280;2713;42.680;23.310;2022-11-12T13:40:01;96426.84;;;10.95;76.38
5380;BME280;2713;42.680;23.310;2022-11-12T13:42:47;96435.25;;;10.89;73.13
5380;BME280;2713;42.680;23.310;2022-11-12T13:45:39;96433.00;;;10.94;72.85
5380;BME280;2713;42.680;23.310;2022-11-12T13:48:27;96432.03;;;10.77;72.98
5380;BME280;2713;42.680;23.310;2022-11-12T13:51:16;96430.16;;;10.69;74.07
5380;BME280;2713;42.680;23.310;2022-11-12T13:54:24;96419.16;;;10.76;74.73
5380;BME280;2713;42.680;23.310;2022-11-12T13:57:29;96422.59;;;10.76;74.38
5380;BME280;2713;42.680;23.310;2022-11-12T14:00:25;96419.69;;;10.79;74.52
5380;BME280;2713;42.680;23.310;2022-11-12T14:03:16;96426.94;;;10.85;74.28
5380;BME280;2713;42.680;23.310;2022-11-12T14:06:04;96420.81;;;10.94;73.95
5380;BME280;2713;42.680;23.310;2022-11-12T14:09:17;96422.97;;;10.81;74.17
5380;BME280;2713;42.680;23.310;2022-11-12T14:12:24;96429.56;;;10.76;73.84
5380;BME280;2713;42.680;23.310;2022-11-12T14:15:31;96426.25;;;10.83;73.82
5380;BME280;2713;42.680;23.310;2022-11-12T14:18:26;96429.13;;;10.80;73.79
5380;BME280;2713;42.680;23.310;2022-11-12T14:21:16;96430.56;;;10.75;74.06
5380;BME280;2713;42.680;23.310;2022-11-12T14:24:03;96422.75;;;10.75;74.01
5380;BME280;2713;42.680;23.310;2022-11-12T14:26:50;96426.34;;;10.91;73.37
5380;BME280;2713;42.680;23.310;2022-11-12T14:29:35;96420.09;;;11.19;72.69
5380;BME280;2713;42.680;23.310;2022-11-12T14:32:20;96426.09;;;11.38;72.22
5380;BME280;2713;42.680;23.310;2022-11-12T14:35:25;96432.03;;;11.30;72.82
5380;BME280;2713;42.680;23.310;2022-11-12T14:38:14;96429.59;;;11.11;74.84
5380;BME280;2713;42.680;23.310;2022-11-12T14:41:07;96427.00;;;11.11;73.57
5380;BME280;2713;42.680;23.310;2022-11-12T14:43:55;96433.03;;;11.11;73.54
5380;BME280;2713;42.680;23.310;2022-11-12T14:46:44;96420.56;;;10.70;74.67
5380;BME280;2713;42.680;23.310;2022-11-12T14:49:34;96430.75;;;10.63;74.84
5380;BME280;2713;42.680;23.310;2022-11-12T14:52:25;96419.84;;;10.78;74.54
5380;BME280;2713;42.680;23.310;2022-11-12T14:55:16;96425.22;;;10.94;74.33
5380;BME280;2713;42.680;23.310;2022-11-12T14:58:04;96412.06;;;10.78;74.80
5380;BME280;2713;42.680;23.310;2022-11-12T15:00:53;96418.75;;;10.98;73.95
5380;BME280;2713;42.680;23.310;2022-11-12T15:03:39;96434.41;;;10.71;74.68
5380;BME280;2713;42.680;23.310;2022-11-12T15:06:28;96431.22;;;10.77;74.42
5380;BME280;2713;42.680;23.310;2022-11-12T15:09:16;96428.91;;;10.74;74.83
5380;BME280;2713;42.680;23.310;2022-11-12T15:12:06;96417.56;;;10.75;74.69
5380;BME280;2713;42.680;23.310;2022-11-12T15:15:06;96422.44;;;10.78;74.85